Observations for GROTTAGLIE CIV AFB, Italy (LIBG)

LIBG 200600Z 25004KT 210V290 CAVOK 15/09 Q1023
LIBG 191750Z 33003KT CAVOK 16/06 Q1024  
LIBG 191650Z 36007KT CAVOK 17/06 Q1024  
LIBG 191550Z 04008KT CAVOK 19/05 Q1025  
LIBG 191450Z 06008KT CAVOK 19/07 Q1024  
LIBG 191350Z 04011KT CAVOK 19/08 Q1025  
LIBG 191250Z 03012KT CAVOK 19/07 Q1025  
LIBG 191150Z 02011KT 9999 FEW030 20/07 Q1025
LIBG 191050Z 02010KT 9999 FEW030 20/07 Q1025
LIBG 190950Z 04009KT 9999 FEW025 19/90 Q1026
LIBG 190850Z 02009KT CAVOK 18/11 Q1026  
LIBG 190750Z 04010KT CAVOK 18/09 Q1025  
LIBG 190650Z 03009KT CAVOK 16/10 Q1025  
LIBG 190600Z 01008KT CAVOK 15/11 Q1024